Time;durP1;ratioP1;P1;durP2;ratioP2;P2;SDS_P1;SDS_P2;PMS_P1;PMS_P2;Temp;Humidity;BMP_temperature;BMP_pressure;BME280_temperature;BME280_humidity;BME280_pressure;Samples;Min_cycle;Max_cycle;Signal;HPM_P1;HPM_P2
2021/08/15 00:00:30;;;;;;;13.50;8.70;;;;;;;;;;5032966;28;20449;-57
2021/08/15 00:02:57;;;;;;;9.70;7.80;;;;;;;;;;5032818;28;20981;-57
2021/08/15 00:05:25;;;;;;;17.63;8.13;;;;;;;;;;5032981;28;20987;-57
2021/08/15 00:07:54;;;;;;;10.20;7.80;;;;;;;;;;5032908;28;20441;-56
2021/08/15 00:10:22;;;;;;;13.03;8.60;;;;;;;;;;5032935;28;20821;-58
2021/08/15 00:12:49;;;;;;;14.77;8.00;;;;;;;;;;5032715;28;20473;-57
2021/08/15 00:15:17;;;;;;;11.13;8.30;;;;;;;;;;5032787;28;20455;-57
2021/08/15 00:17:44;;;;;;;9.33;8.00;;;;;;;;;;5032877;28;20812;-57
2021/08/15 00:20:12;;;;;;;13.70;7.90;;;;;;;;;;5033126;28;20445;-57
2021/08/15 00:22:40;;;;;;;12.30;7.47;;;;;;;;;;5032730;28;20526;-57
2021/08/15 00:25:10;;;;;;;11.90;7.73;;;;;;;;;;5036781;28;20499;-58
2021/08/15 00:27:37;;;;;;;15.30;7.90;;;;;;;;;;5037903;28;20537;-58
2021/08/15 00:30:05;;;;;;;10.90;7.30;;;;;;;;;;5036877;28;20506;-58
2021/08/15 00:32:32;;;;;;;13.70;7.77;;;;;;;;;;5036854;28;20465;-58
2021/08/15 00:35:01;;;;;;;10.83;7.93;;;;;;;;;;5037126;28;20445;-57
2021/08/15 00:37:28;;;;;;;12.00;7.70;;;;;;;;;;5036697;28;20539;-57
2021/08/15 00:39:55;;;;;;;11.63;8.13;;;;;;;;;;5036669;28;20498;-58
2021/08/15 00:42:24;;;;;;;13.70;8.13;;;;;;;;;;5036888;28;20555;-57
2021/08/15 00:44:52;;;;;;;11.47;7.67;;;;;;;;;;5036895;28;20441;-58
2021/08/15 00:47:19;;;;;;;8.93;7.13;;;;;;;;;;5036480;28;20452;-57
2021/08/15 00:49:46;;;;;;;14.17;7.57;;;;;;;;;;5036238;28;20453;-56
2021/08/15 00:52:14;;;;;;;11.57;8.30;;;;;;;;;;5036522;28;20464;-56
2021/08/15 00:54:41;;;;;;;14.30;8.83;;;;;;;;;;5036517;28;20484;-57
2021/08/15 00:57:08;;;;;;;11.53;7.80;;;;;;;;;;5036200;28;20448;-58
2021/08/15 00:59:39;;;;;;;14.07;8.10;;;;;;;;;;5036196;28;20861;-57
2021/08/15 01:02:07;;;;;;;13.10;7.90;;;;;;;;;;5036395;28;20465;-58
2021/08/15 01:04:35;;;;;;;15.60;9.00;;;;;;;;;;5036384;28;20528;-58
2021/08/15 01:07:04;;;;;;;15.00;8.50;;;;;;;;;;5036018;28;20998;-58
2021/08/15 01:09:32;;;;;;;12.30;8.00;;;;;;;;;;5037394;28;20507;-58
2021/08/15 01:12:00;;;;;;;15.93;8.83;;;;;;;;;;5037341;28;20473;-59
2021/08/15 01:14:27;;;;;;;12.50;7.87;;;;;;;;;;5036928;28;20526;-58
2021/08/15 01:16:56;;;;;;;14.63;7.57;;;;;;;;;;5037753;28;20852;-58
2021/08/15 01:19:29;;;;;;;15.87;8.90;;;;;;;;;;5036505;28;20444;-58
2021/08/15 01:21:56;;;;;;;11.43;8.07;;;;;;;;;;5035743;28;20559;-58
2021/08/15 01:24:23;;;;;;;13.57;9.43;;;;;;;;;;5036606;28;20477;-59
2021/08/15 01:26:51;;;;;;;17.27;8.40;;;;;;;;;;5037720;28;20471;-58
2021/08/15 01:29:22;;;;;;;9.27;7.67;;;;;;;;;;5038040;28;20499;-57
2021/08/15 01:31:49;;;;;;;10.27;8.90;;;;;;;;;;5038158;28;20435;-58
2021/08/15 01:34:17;;;;;;;13.07;8.33;;;;;;;;;;5038280;28;20477;-57
2021/08/15 01:36:44;;;;;;;13.47;8.30;;;;;;;;;;5037464;28;21003;-57
2021/08/15 01:39:11;;;;;;;15.00;8.63;;;;;;;;;;5036538;28;20453;-57
2021/08/15 01:41:38;;;;;;;13.43;7.90;;;;;;;;;;5036090;28;20449;-59
2021/08/15 01:44:06;;;;;;;13.43;8.50;;;;;;;;;;5035772;28;20502;-57
2021/08/15 01:46:35;;;;;;;17.17;8.27;;;;;;;;;;5035526;28;20441;-57
2021/08/15 01:49:03;;;;;;;12.37;7.73;;;;;;;;;;5035811;28;20441;-57
2021/08/15 01:51:31;;;;;;;10.37;7.87;;;;;;;;;;5035653;28;20448;-59
2021/08/15 01:54:02;;;;;;;10.47;7.53;;;;;;;;;;5036232;28;20508;-57
2021/08/15 01:56:29;;;;;;;8.33;6.83;;;;;;;;;;5035778;28;20479;-57
2021/08/15 01:58:56;;;;;;;12.97;7.17;;;;;;;;;;5035487;28;20511;-56
2021/08/15 02:01:25;;;;;;;11.20;8.30;;;;;;;;;;5034972;28;20933;-57
2021/08/15 02:03:53;;;;;;;10.53;7.87;;;;;;;;;;5035070;28;20465;-57
2021/08/15 02:06:21;;;;;;;11.10;8.30;;;;;;;;;;5034999;28;20499;-57
2021/08/15 02:08:48;;;;;;;13.97;7.93;;;;;;;;;;5035289;28;20491;-57
2021/08/15 02:11:15;;;;;;;10.20;7.90;;;;;;;;;;5035249;28;20945;-57
2021/08/15 02:13:43;;;;;;;14.10;8.03;;;;;;;;;;5034743;28;20481;-57
2021/08/15 02:16:10;;;;;;;10.47;7.23;;;;;;;;;;5035035;28;20449;-57
2021/08/15 02:18:37;;;;;;;10.60;7.50;;;;;;;;;;5035041;28;20449;-57
2021/08/15 02:21:06;;;;;;;10.70;7.40;;;;;;;;;;5035009;28;20453;-57
2021/08/15 02:23:33;;;;;;;11.30;6.60;;;;;;;;;;5034549;28;20990;-57
2021/08/15 02:26:01;;;;;;;9.33;6.73;;;;;;;;;;5034684;28;20453;-57
2021/08/15 02:28:28;;;;;;;10.60;7.10;;;;;;;;;;5034788;28;20483;-57
2021/08/15 02:30:55;;;;;;;9.67;6.47;;;;;;;;;;5034652;28;20448;-57
2021/08/15 02:33:23;;;;;;;14.03;7.10;;;;;;;;;;5034765;28;20907;-58
2021/08/15 02:35:50;;;;;;;12.37;7.10;;;;;;;;;;5034500;28;20449;-58
2021/08/15 02:38:19;;;;;;;10.00;7.07;;;;;;;;;;5034793;28;20453;-57
2021/08/15 02:40:46;;;;;;;8.80;6.77;;;;;;;;;;5034736;28;20449;-57
2021/08/15 02:43:13;;;;;;;21.03;7.57;;;;;;;;;;5034289;28;20499;-57
2021/08/15 02:45:40;;;;;;;11.07;7.07;;;;;;;;;;5035094;28;20457;-57
2021/08/15 02:48:08;;;;;;;10.23;7.70;;;;;;;;;;5033529;28;20445;-57
2021/08/15 02:50:35;;;;;;;8.47;6.67;;;;;;;;;;5034166;28;20449;-57
2021/08/15 02:53:02;;;;;;;11.60;7.90;;;;;;;;;;5034069;28;20469;-57
2021/08/15 02:55:31;;;;;;;10.33;7.40;;;;;;;;;;5034308;28;20488;-58
2021/08/15 02:57:58;;;;;;;15.00;7.63;;;;;;;;;;5034352;28;20449;-57
2021/08/15 03:00:25;;;;;;;12.77;9.10;;;;;;;;;;5034332;28;20453;-57
2021/08/15 03:02:53;;;;;;;13.40;8.00;;;;;;;;;;5033931;28;20473;-57
2021/08/15 03:05:21;;;;;;;12.73;7.00;;;;;;;;;;5033956;28;20503;-57
2021/08/15 03:07:49;;;;;;;14.70;8.13;;;;;;;;;;5033917;28;20457;-57
2021/08/15 03:10:16;;;;;;;10.60;7.10;;;;;;;;;;5033871;28;20453;-57
2021/08/15 03:12:45;;;;;;;11.90;7.60;;;;;;;;;;5033780;28;20465;-58
2021/08/15 03:15:13;;;;;;;11.87;7.40;;;;;;;;;;5033754;28;20997;-57
2021/08/15 03:17:40;;;;;;;13.10;7.67;;;;;;;;;;5034051;28;20445;-57
2021/08/15 03:20:08;;;;;;;11.40;7.50;;;;;;;;;;5034030;28;20491;-58
2021/08/15 03:22:35;;;;;;;13.57;8.50;;;;;;;;;;5033559;28;20477;-58
2021/08/15 03:25:02;;;;;;;11.90;7.73;;;;;;;;;;5033813;28;20999;-58
2021/08/15 03:27:29;;;;;;;10.90;7.83;;;;;;;;;;5034050;28;20445;-57
2021/08/15 03:29:58;;;;;;;17.07;8.67;;;;;;;;;;5033956;28;20445;-58
2021/08/15 03:32:25;;;;;;;14.23;9.00;;;;;;;;;;5033882;28;20473;-58
2021/08/15 03:34:52;;;;;;;18.53;9.47;;;;;;;;;;5033449;28;20480;-57
2021/08/15 03:37:20;;;;;;;10.83;7.87;;;;;;;;;;5034059;28;20441;-57
2021/08/15 03:39:47;;;;;;;11.37;8.07;;;;;;;;;;5033648;28;20453;-57
2021/08/15 03:42:14;;;;;;;14.00;8.20;;;;;;;;;;5033278;28;20465;-57
2021/08/15 03:44:41;;;;;;;11.30;8.23;;;;;;;;;;5033685;28;20437;-57
2021/08/15 03:47:10;;;;;;;13.93;8.90;;;;;;;;;;5033612;28;20515;-57
2021/08/15 03:49:37;;;;;;;9.20;8.20;;;;;;;;;;5033563;28;20449;-58
2021/08/15 03:52:05;;;;;;;9.33;7.93;;;;;;;;;;5033472;28;20468;-58
2021/08/15 03:54:32;;;;;;;15.30;8.97;;;;;;;;;;5033042;28;20554;-57
2021/08/15 03:56:59;;;;;;;15.23;8.30;;;;;;;;;;5033391;28;20507;-57
2021/08/15 03:59:26;;;;;;;14.50;9.20;;;;;;;;;;5033005;28;20491;-57
2021/08/15 04:01:54;;;;;;;12.20;8.67;;;;;;;;;;5033244;28;20814;-58
2021/08/15 04:04:22;;;;;;;14.10;9.23;;;;;;;;;;5033592;28;20441;-58
2021/08/15 04:08:27;;;;;;;13.50;9.03;;;;;;;;;;5132781;27;20539;-58
2021/08/15 04:10:54;;;;;;;11.43;9.63;;;;;;;;;;5131822;27;20441;-58
2021/08/15 04:13:22;;;;;;;13.83;8.93;;;;;;;;;;5131743;27;20972;-58
2021/08/15 04:15:50;;;;;;;12.40;8.47;;;;;;;;;;5131918;27;20440;-57
2021/08/15 04:18:17;;;;;;;12.87;8.80;;;;;;;;;;5132038;27;20810;-58
2021/08/15 04:20:44;;;;;;;18.87;8.80;;;;;;;;;;5131759;27;20497;-59
2021/08/15 04:23:12;;;;;;;14.77;8.73;;;;;;;;;;5131913;27;20456;-58
2021/08/15 04:25:40;;;;;;;10.27;8.63;;;;;;;;;;5131316;27;20989;-59
2021/08/15 04:28:07;;;;;;;11.93;9.17;;;;;;;;;;5131892;27;20888;-58
2021/08/15 04:30:35;;;;;;;12.50;9.10;;;;;;;;;;5131702;27;20445;-58
2021/08/15 04:33:02;;;;;;;13.77;9.53;;;;;;;;;;5131215;27;20972;-58
2021/08/15 04:35:30;;;;;;;10.70;8.70;;;;;;;;;;5131401;27;20437;-58
2021/08/15 04:37:58;;;;;;;12.67;8.70;;;;;;;;;;5131286;27;20440;-57
2021/08/15 04:40:25;;;;;;;12.10;8.07;;;;;;;;;;5131308;27;20536;-57
2021/08/15 04:42:53;;;;;;;11.70;8.33;;;;;;;;;;5131123;27;20529;-56
2021/08/15 04:45:21;;;;;;;12.67;7.43;;;;;;;;;;5131209;27;20441;-57
2021/08/15 04:47:48;;;;;;;12.07;7.70;;;;;;;;;;5130919;27;20541;-58
2021/08/15 04:50:15;;;;;;;9.17;7.17;;;;;;;;;;5130767;27;20448;-58
2021/08/15 04:52:42;;;;;;;11.53;8.40;;;;;;;;;;5131674;27;20461;-57
2021/08/15 04:55:10;;;;;;;12.97;8.47;;;;;;;;;;5131470;27;20480;-58
2021/08/15 04:57:37;;;;;;;12.97;8.33;;;;;;;;;;5130914;27;20485;-58
2021/08/15 05:00:07;;;;;;;12.90;9.37;;;;;;;;;;5130863;27;20437;-58
2021/08/15 05:02:34;;;;;;;11.10;7.10;;;;;;;;;;5130466;27;20453;-57
2021/08/15 05:05:01;;;;;;;12.07;9.60;;;;;;;;;;5130785;27;20444;-58
2021/08/15 05:07:29;;;;;;;18.93;9.10;;;;;;;;;;5130134;27;20492;-58
2021/08/15 05:09:56;;;;;;;14.53;8.10;;;;;;;;;;5131527;27;20436;-58
2021/08/15 05:12:23;;;;;;;12.20;8.17;;;;;;;;;;5130785;27;20472;-58
2021/08/15 05:14:50;;;;;;;11.30;7.33;;;;;;;;;;5130332;27;20932;-58
2021/08/15 05:17:19;;;;;;;10.53;7.97;;;;;;;;;;5130465;27;20441;-58
2021/08/15 05:19:46;;;;;;;14.40;8.37;;;;;;;;;;5116883;27;20453;-58
2021/08/15 05:24:43;;;;;;;13.73;8.40;;;;;;;;;;5075125;28;20450;-54
2021/08/15 05:27:10;;;;;;;12.13;7.67;;;;;;;;;;5075852;28;20482;-55
2021/08/15 05:29:37;;;;;;;13.00;8.70;;;;;;;;;;5075933;28;20459;-54
2021/08/15 05:32:05;;;;;;;10.60;7.40;;;;;;;;;;5075741;28;20492;-54
2021/08/15 05:34:33;;;;;;;12.20;7.77;;;;;;;;;;5075732;28;20470;-54
2021/08/15 05:37:00;;;;;;;16.30;9.07;;;;;;;;;;5076086;28;20439;-54
2021/08/15 05:39:28;;;;;;;11.10;8.10;;;;;;;;;;5075806;28;20862;-54
2021/08/15 05:41:55;;;;;;;9.27;7.83;;;;;;;;;;5075455;28;20443;-54
2021/08/15 05:44:22;;;;;;;10.03;7.20;;;;;;;;;;5076001;28;20467;-55
2021/08/15 05:46:49;;;;;;;9.73;7.83;;;;;;;;;;5075189;28;20882;-54
2021/08/15 05:49:17;;;;;;;10.40;8.10;;;;;;;;;;5075543;28;20486;-54
2021/08/15 05:51:45;;;;;;;11.53;8.00;;;;;;;;;;5075245;28;20849;-55
2021/08/15 05:54:12;;;;;;;12.63;8.00;;;;;;;;;;5075459;28;20884;-55
2021/08/15 05:56:40;;;;;;;8.90;7.30;;;;;;;;;;5075160;28;20451;-55
2021/08/15 05:59:07;;;;;;;11.60;8.70;;;;;;;;;;5075447;28;20447;-55
2021/08/15 06:01:34;;;;;;;10.27;7.53;;;;;;;;;;5075174;28;20443;-55
2021/08/15 06:04:02;;;;;;;7.47;6.67;;;;;;;;;;5075274;28;20459;-55
2021/08/15 06:06:29;;;;;;;15.33;8.30;;;;;;;;;;5074911;28;20534;-55
2021/08/15 06:08:58;;;;;;;12.07;8.70;;;;;;;;;;5075103;28;20470;-55
2021/08/15 06:11:25;;;;;;;13.20;8.13;;;;;;;;;;5075152;28;20496;-55
2021/08/15 06:13:53;;;;;;;12.87;7.97;;;;;;;;;;5074980;28;20528;-55
2021/08/15 06:16:20;;;;;;;12.53;7.20;;;;;;;;;;5074730;28;20454;-56
2021/08/15 06:18:48;;;;;;;9.17;7.07;;;;;;;;;;5074686;28;20435;-55
2021/08/15 06:21:15;;;;;;;11.77;8.03;;;;;;;;;;5074953;28;20447;-55
2021/08/15 06:23:42;;;;;;;10.40;8.20;;;;;;;;;;5074570;28;20471;-55
2021/08/15 06:26:11;;;;;;;12.43;7.70;;;;;;;;;;5074607;28;20448;-55
2021/08/15 06:28:38;;;;;;;12.13;7.50;;;;;;;;;;5074773;28;20479;-55
2021/08/15 06:31:05;;;;;;;11.87;8.10;;;;;;;;;;5073403;28;20499;-55
2021/08/15 06:33:32;;;;;;;9.30;7.33;;;;;;;;;;5074569;28;20471;-55
2021/08/15 06:36:00;;;;;;;9.17;7.40;;;;;;;;;;5074692;28;20521;-56
2021/08/15 06:38:27;;;;;;;13.47;7.67;;;;;;;;;;5074232;28;20932;-56
2021/08/15 06:40:56;;;;;;;13.57;7.50;;;;;;;;;;5074255;28;21002;-56
2021/08/15 06:43:26;;;;;;;11.47;7.90;;;;;;;;;;5074412;28;20467;-56
2021/08/15 06:45:54;;;;;;;8.87;7.00;;;;;;;;;;5074373;28;20865;-56
2021/08/15 06:48:22;;;;;;;9.80;6.93;;;;;;;;;;5073979;28;20480;-56
2021/08/15 06:50:53;;;;;;;10.43;7.30;;;;;;;;;;5074332;28;20539;-56
2021/08/15 06:53:21;;;;;;;12.53;7.40;;;;;;;;;;5073840;28;20582;-56
2021/08/15 06:55:48;;;;;;;11.90;7.77;;;;;;;;;;5074316;28;20479;-57
2021/08/15 06:58:16;;;;;;;7.70;6.77;;;;;;;;;;5073818;28;20800;-56
2021/08/15 07:00:44;;;;;;;8.83;6.30;;;;;;;;;;5074119;28;20813;-55
2021/08/15 07:03:11;;;;;;;8.90;6.90;;;;;;;;;;5074118;28;20522;-57
2021/08/15 07:05:39;;;;;;;8.60;7.67;;;;;;;;;;5074146;28;20449;-56
2021/08/15 07:08:06;;;;;;;13.63;7.80;;;;;;;;;;5073741;28;20475;-55
2021/08/15 07:10:33;;;;;;;12.00;7.70;;;;;;;;;;5073947;28;20446;-56
2021/08/15 07:13:02;;;;;;;12.60;8.07;;;;;;;;;;5073225;28;20464;-55
2021/08/15 07:15:29;;;;;;;10.90;7.93;;;;;;;;;;5073363;28;20447;-55
2021/08/15 07:17:58;;;;;;;16.30;6.90;;;;;;;;;;5073597;28;20441;-56
2021/08/15 07:20:26;;;;;;;16.50;8.33;;;;;;;;;;5073545;28;20454;-56
2021/08/15 07:22:53;;;;;;;12.77;8.57;;;;;;;;;;5073219;28;20534;-55
2021/08/15 07:25:21;;;;;;;10.77;7.70;;;;;;;;;;5073014;28;20430;-56
2021/08/15 07:27:49;;;;;;;13.03;7.47;;;;;;;;;;5073162;28;20481;-55
2021/08/15 07:30:16;;;;;;;9.17;7.33;;;;;;;;;;5073386;28;20462;-56
2021/08/15 07:32:50;;;;;;;13.10;7.57;;;;;;;;;;5073270;28;20524;-56
2021/08/15 07:35:19;;;;;;;9.77;6.87;;;;;;;;;;5073713;28;20524;-56
2021/08/15 07:37:46;;;;;;;13.40;8.60;;;;;;;;;;5073558;28;20439;-56
2021/08/15 07:40:14;;;;;;;10.10;7.80;;;;;;;;;;5073615;28;20446;-56
2021/08/15 07:42:41;;;;;;;13.50;8.30;;;;;;;;;;5072888;28;20978;-56
2021/08/15 07:45:09;;;;;;;10.77;7.43;;;;;;;;;;5073091;28;20454;-56
2021/08/15 07:47:36;;;;;;;13.30;7.83;;;;;;;;;;5073485;28;20476;-59
2021/08/15 07:50:03;;;;;;;15.00;7.60;;;;;;;;;;5073269;28;20451;-57
2021/08/15 07:52:32;;;;;;;14.90;8.47;;;;;;;;;;5073265;28;20455;-56
2021/08/15 07:54:59;;;;;;;9.47;7.40;;;;;;;;;;5073556;28;20492;-57
2021/08/15 07:57:27;;;;;;;13.57;8.37;;;;;;;;;;5073506;28;20450;-56
2021/08/15 07:59:54;;;;;;;12.80;8.00;;;;;;;;;;5073846;28;20508;-57
2021/08/15 08:02:22;;;;;;;14.43;8.37;;;;;;;;;;5073190;28;20890;-55
2021/08/15 08:04:50;;;;;;;9.53;7.33;;;;;;;;;;5072844;28;20500;-57
2021/08/15 08:07:19;;;;;;;10.90;7.47;;;;;;;;;;5073114;28;20456;-56
2021/08/15 08:09:48;;;;;;;11.73;7.63;;;;;;;;;;5073167;28;20450;-55
2021/08/15 08:12:15;;;;;;;11.60;8.17;;;;;;;;;;5072726;28;20443;-57
2021/08/15 08:14:43;;;;;;;12.37;7.57;;;;;;;;;;5073208;28;20806;-58
2021/08/15 08:17:12;;;;;;;10.90;7.60;;;;;;;;;;5072764;28;20448;-56
2021/08/15 08:19:39;;;;;;;12.80;8.70;;;;;;;;;;5072576;28;20452;-56
2021/08/15 08:22:07;;;;;;;11.60;8.43;;;;;;;;;;5073150;28;20935;-55
2021/08/15 08:24:34;;;;;;;18.00;8.33;;;;;;;;;;5073144;28;20454;-56
2021/08/15 08:27:03;;;;;;;14.17;8.27;;;;;;;;;;5073031;28;20595;-55
2021/08/15 08:29:30;;;;;;;11.10;8.13;;;;;;;;;;5072601;28;20899;-55
2021/08/15 08:31:57;;;;;;;11.77;8.10;;;;;;;;;;5072552;28;20450;-56
2021/08/15 08:34:24;;;;;;;12.43;9.10;;;;;;;;;;5072852;28;20520;-56
2021/08/15 08:36:52;;;;;;;11.13;8.80;;;;;;;;;;5072826;28;20504;-56
2021/08/15 08:39:19;;;;;;;13.97;8.80;;;;;;;;;;5072602;28;20449;-56
2021/08/15 08:41:47;;;;;;;12.80;9.20;;;;;;;;;;5072524;28;20445;-56
2021/08/15 08:44:15;;;;;;;11.40;8.00;;;;;;;;;;5072309;28;20471;-57
2021/08/15 08:46:43;;;;;;;11.03;9.30;;;;;;;;;;5072443;28;20943;-57
2021/08/15 08:49:10;;;;;;;14.53;8.63;;;;;;;;;;5072325;28;20529;-57
2021/08/15 08:51:37;;;;;;;13.40;8.57;;;;;;;;;;5072402;28;20502;-58
2021/08/15 08:54:05;;;;;;;13.53;9.60;;;;;;;;;;5074988;28;20468;-56
2021/08/15 08:56:32;;;;;;;11.53;8.83;;;;;;;;;;5076148;28;20804;-56
2021/08/15 08:58:59;;;;;;;18.03;8.97;;;;;;;;;;5076433;28;20517;-57
2021/08/15 09:01:28;;;;;;;14.20;8.60;;;;;;;;;;5076120;28;20499;-57
2021/08/15 09:03:55;;;;;;;14.40;9.57;;;;;;;;;;5075834;28;20841;-56
2021/08/15 09:06:23;;;;;;;14.03;9.57;;;;;;;;;;5076266;28;20444;-56
2021/08/15 09:08:51;;;;;;;12.30;9.67;;;;;;;;;;5075934;28;21016;-56
2021/08/15 09:11:19;;;;;;;13.80;8.20;;;;;;;;;;5075952;28;20939;-57
2021/08/15 09:14:00;;;;;;;13.83;8.83;;;;;;;;;;5075662;28;20522;-56
2021/08/15 09:16:48;;;;;;;13.90;9.57;;;;;;;;;;5076164;28;20427;-56
2021/08/15 09:19:24;;;;;;;11.23;7.83;;;;;;;;;;5075810;28;20460;-57
2021/08/15 09:21:51;;;;;;;11.07;8.80;;;;;;;;;;5075863;28;20428;-57
2021/08/15 09:24:19;;;;;;;16.67;9.73;;;;;;;;;;5076001;28;20883;-57
2021/08/15 09:26:55;;;;;;;12.83;9.20;;;;;;;;;;5075504;28;20446;-56
2021/08/15 09:29:22;;;;;;;14.63;9.13;;;;;;;;;;5075762;28;20467;-57
2021/08/15 09:31:51;;;;;;;10.90;8.50;;;;;;;;;;5075770;28;20466;-57
2021/08/15 09:34:28;;;;;;;13.67;8.20;;;;;;;;;;5075830;28;20470;-57
2021/08/15 09:36:55;;;;;;;9.50;7.30;;;;;;;;;;5075496;28;20437;-56
2021/08/15 09:39:32;;;;;;;9.00;6.37;;;;;;;;;;5075437;28;20809;-57
2021/08/15 09:42:00;;;;;;;8.23;6.60;;;;;;;;;;5075279;28;20928;-57
2021/08/15 09:44:27;;;;;;;10.30;6.33;;;;;;;;;;5075093;28;20455;-56
2021/08/15 09:47:10;;;;;;;9.47;6.50;;;;;;;;;;5075103;28;20449;-56
2021/08/15 09:49:44;;;;;;;8.90;7.03;;;;;;;;;;5075048;28;20528;-57
2021/08/15 09:52:16;;;;;;;11.13;7.50;;;;;;;;;;5075231;28;20876;-56
2021/08/15 09:54:53;;;;;;;9.63;5.53;;;;;;;;;;5075032;28;20427;-57
2021/08/15 09:57:29;;;;;;;6.67;4.70;;;;;;;;;;5075130;28;20432;-57
2021/08/15 09:59:56;;;;;;;8.70;5.60;;;;;;;;;;5075346;28;20429;-57
2021/08/15 10:02:25;;;;;;;13.00;9.23;;;;;;;;;;5074762;28;20442;-57
2021/08/15 10:04:53;;;;;;;10.83;8.00;;;;;;;;;;5074967;28;20452;-57
2021/08/15 10:07:20;;;;;;;9.73;7.00;;;;;;;;;;5074815;28;20502;-57
2021/08/15 10:09:47;;;;;;;10.40;7.20;;;;;;;;;;5074878;28;20484;-57
2021/08/15 10:12:15;;;;;;;14.07;8.90;;;;;;;;;;5074341;28;20938;-57
2021/08/15 10:14:42;;;;;;;12.33;8.50;;;;;;;;;;5074456;28;20444;-58
2021/08/15 10:17:11;;;;;;;10.93;8.10;;;;;;;;;;5074784;28;20989;-58
2021/08/15 10:19:43;;;;;;;11.60;9.40;;;;;;;;;;5075136;28;20533;-58
2021/08/15 10:22:11;;;;;;;10.50;8.80;;;;;;;;;;5074885;28;20439;-58
2021/08/15 10:24:42;;;;;;;10.47;8.00;;;;;;;;;;5074718;28;20533;-58
2021/08/15 10:27:10;;;;;;;8.43;7.10;;;;;;;;;;5074530;28;20541;-60
2021/08/15 10:29:39;;;;;;;11.00;8.20;;;;;;;;;;5075072;28;20499;-58
2021/08/15 10:32:10;;;;;;;8.60;6.90;;;;;;;;;;5074476;28;20450;-57
2021/08/15 10:34:57;;;;;;;10.53;6.43;;;;;;;;;;5074293;28;20501;-58
2021/08/15 10:37:36;;;;;;;6.93;5.50;;;;;;;;;;5074293;28;20489;-58
2021/08/15 10:40:04;;;;;;;12.23;7.00;;;;;;;;;;5073984;28;20888;-58
2021/08/15 10:42:44;;;;;;;13.40;7.03;;;;;;;;;;5074320;28;20463;-57
2021/08/15 10:45:13;;;;;;;7.17;5.60;;;;;;;;;;5073961;28;20970;-58
2021/08/15 10:47:41;;;;;;;7.67;6.20;;;;;;;;;;5074150;28;20546;-57
2021/08/15 10:50:10;;;;;;;8.67;5.33;;;;;;;;;;5074094;28;20974;-58
2021/08/15 10:52:39;;;;;;;9.40;6.47;;;;;;;;;;5073982;28;20474;-58
2021/08/15 10:55:17;;;;;;;7.87;6.00;;;;;;;;;;5073772;28;20933;-57
2021/08/15 10:57:49;;;;;;;8.93;6.40;;;;;;;;;;5073821;28;20894;-59
2021/08/15 11:00:36;;;;;;;6.07;5.23;;;;;;;;;;5074183;28;20441;-57
2021/08/15 11:03:30;;;;;;;7.07;5.23;;;;;;;;;;5073863;28;20494;-57
2021/08/15 11:05:58;;;;;;;6.43;5.60;;;;;;;;;;5073571;28;20440;-58
2021/08/15 11:08:40;;;;;;;8.23;6.10;;;;;;;;;;5074267;28;20450;-58
2021/08/15 11:11:09;;;;;;;6.40;5.80;;;;;;;;;;5072658;28;20447;-58
2021/08/15 11:13:37;;;;;;;6.43;5.07;;;;;;;;;;5073349;28;21043;-56
2021/08/15 11:16:22;;;;;;;5.13;4.63;;;;;;;;;;5073262;28;20460;-57
2021/08/15 11:19:04;;;;;;;8.27;5.63;;;;;;;;;;5072305;28;20496;-58
2021/08/15 11:21:46;;;;;;;9.53;5.93;;;;;;;;;;5072890;28;20440;-57
2021/08/15 11:24:14;;;;;;;9.13;6.57;;;;;;;;;;5104615;22;20480;-57
2021/08/15 11:26:45;;;;;;;6.50;5.70;;;;;;;;;;5114118;28;20490;-55
2021/08/15 11:29:13;;;;;;;8.00;5.70;;;;;;;;;;5113906;28;20514;-57
2021/08/15 11:31:40;;;;;;;8.47;5.90;;;;;;;;;;5113394;28;20454;-57
2021/08/15 11:34:08;;;;;;;5.90;5.30;;;;;;;;;;5113553;28;20472;-56
2021/08/15 11:36:35;;;;;;;7.03;5.50;;;;;;;;;;5113934;28;20500;-56
2021/08/15 11:39:04;;;;;;;7.83;5.70;;;;;;;;;;5113434;28;20497;-57
2021/08/15 11:41:31;;;;;;;8.70;6.10;;;;;;;;;;5113482;28;20501;-57
2021/08/15 11:44:00;;;;;;;10.40;6.10;;;;;;;;;;5113594;28;20439;-57
2021/08/15 11:46:27;;;;;;;8.40;6.37;;;;;;;;;;5113469;28;20511;-57
2021/08/15 11:48:54;;;;;;;7.47;5.50;;;;;;;;;;5113646;28;20532;-58
2021/08/15 11:51:21;;;;;;;6.33;5.40;;;;;;;;;;5113619;28;20505;-58
2021/08/15 11:53:49;;;;;;;8.73;5.93;;;;;;;;;;5113659;28;20870;-58
2021/08/15 11:56:18;;;;;;;6.23;5.63;;;;;;;;;;5113263;28;20940;-58
2021/08/15 11:58:45;;;;;;;8.60;5.90;;;;;;;;;;5113231;28;20446;-58
2021/08/15 12:01:14;;;;;;;8.33;6.13;;;;;;;;;;5113221;28;20445;-58
2021/08/15 12:03:42;;;;;;;7.83;5.00;;;;;;;;;;5113490;28;20438;-58
2021/08/15 12:06:09;;;;;;;7.73;5.23;;;;;;;;;;5113491;28;20611;-56
2021/08/15 12:08:37;;;;;;;5.73;4.27;;;;;;;;;;5113661;28;20488;-57
2021/08/15 12:11:05;;;;;;;6.00;4.67;;;;;;;;;;5112968;28;20487;-58
2021/08/15 12:13:33;;;;;;;8.50;4.77;;;;;;;;;;5113251;28;20450;-58
2021/08/15 12:16:10;;;;;;;5.90;4.40;;;;;;;;;;5118921;28;20460;-58
2021/08/15 12:18:40;;;;;;;5.83;3.83;;;;;;;;;;5117335;28;20444;-59
2021/08/15 12:21:19;;;;;;;7.27;4.20;;;;;;;;;;5113785;28;20503;-56
2021/08/15 12:23:58;;;;;;;5.70;4.40;;;;;;;;;;5113913;28;20486;-59
2021/08/15 12:26:26;;;;;;;4.87;4.40;;;;;;;;;;5115810;28;20418;-58
2021/08/15 12:28:56;;;;;;;4.27;3.63;;;;;;;;;;5116080;28;20435;-59
2021/08/15 12:31:24;;;;;;;4.43;3.70;;;;;;;;;;5119024;28;20512;-58
2021/08/15 12:34:04;;;;;;;4.77;3.40;;;;;;;;;;5118321;28;20454;-59
2021/08/15 12:36:40;;;;;;;4.23;3.70;;;;;;;;;;5118645;28;20483;-58
2021/08/15 12:39:08;;;;;;;4.23;3.70;;;;;;;;;;5118172;28;20438;-58
2021/08/15 12:41:49;;;;;;;6.53;4.20;;;;;;;;;;5117469;28;20905;-58
2021/08/15 12:44:18;;;;;;;4.80;3.43;;;;;;;;;;5117609;28;20459;-58
2021/08/15 12:46:45;;;;;;;7.43;3.93;;;;;;;;;;5117718;28;20534;-57
2021/08/15 12:49:24;;;;;;;4.57;3.30;;;;;;;;;;5117082;28;20519;-58
2021/08/15 12:51:52;;;;;;;4.43;3.00;;;;;;;;;;5116712;28;20496;-58
2021/08/15 12:54:19;;;;;;;6.10;4.03;;;;;;;;;;5116631;28;20468;-56
2021/08/15 12:56:47;;;;;;;5.60;3.50;;;;;;;;;;5116486;28;20438;-58
2021/08/15 12:59:14;;;;;;;5.80;3.37;;;;;;;;;;5116678;28;20492;-56
2021/08/15 13:01:41;;;;;;;4.13;3.10;;;;;;;;;;5116746;28;20494;-58
2021/08/15 13:04:08;;;;;;;7.10;3.80;;;;;;;;;;5117172;28;20476;-58
2021/08/15 13:06:37;;;;;;;4.70;2.80;;;;;;;;;;5116477;28;20440;-58
2021/08/15 13:09:05;;;;;;;3.70;3.10;;;;;;;;;;5116726;28;20437;-57
2021/08/15 13:11:33;;;;;;;4.77;3.80;;;;;;;;;;5116812;28;20454;-57
2021/08/15 13:14:00;;;;;;;6.50;3.37;;;;;;;;;;5116749;28;20479;-57
2021/08/15 13:16:27;;;;;;;3.80;2.80;;;;;;;;;;5116629;28;21034;-57
2021/08/15 13:18:54;;;;;;;6.50;3.83;;;;;;;;;;5116485;28;20441;-56
2021/08/15 13:21:22;;;;;;;3.80;3.10;;;;;;;;;;5116477;28;20455;-60
2021/08/15 13:23:50;;;;;;;5.00;4.10;;;;;;;;;;5116592;28;20477;-57
2021/08/15 13:26:18;;;;;;;5.07;3.60;;;;;;;;;;5116754;28;20516;-57
2021/08/15 13:28:45;;;;;;;4.03;3.47;;;;;;;;;;5116412;28;20444;-57
2021/08/15 13:31:12;;;;;;;6.13;3.57;;;;;;;;;;5115785;28;20469;-57
2021/08/15 13:33:39;;;;;;;6.37;3.30;;;;;;;;;;5116127;28;20438;-57
2021/08/15 13:36:07;;;;;;;5.23;3.53;;;;;;;;;;5115780;28;20519;-57
2021/08/15 13:38:34;;;;;;;7.00;3.90;;;;;;;;;;5115788;28;20438;-56
2021/08/15 13:41:02;;;;;;;4.70;3.30;;;;;;;;;;5116104;28;20440;-58
2021/08/15 13:43:30;;;;;;;5.50;3.83;;;;;;;;;;5116016;28;20492;-58
2021/08/15 13:45:57;;;;;;;6.07;3.43;;;;;;;;;;5115619;28;20460;-58
2021/08/15 13:48:24;;;;;;;4.60;4.10;;;;;;;;;;5115981;28;20451;-57
2021/08/15 13:50:51;;;;;;;5.47;3.77;;;;;;;;;;5115319;28;20834;-58
2021/08/15 13:53:19;;;;;;;5.97;4.50;;;;;;;;;;5115855;28;20448;-59
2021/08/15 13:55:47;;;;;;;6.00;4.30;;;;;;;;;;5115909;28;20520;-58
2021/08/15 13:58:16;;;;;;;5.27;3.90;;;;;;;;;;5115356;28;20501;-58
2021/08/15 14:00:43;;;;;;;9.00;3.70;;;;;;;;;;5115643;28;20441;-58
2021/08/15 14:03:10;;;;;;;5.73;3.27;;;;;;;;;;5115304;28;20448;-58
2021/08/15 14:05:38;;;;;;;4.77;2.87;;;;;;;;;;5115234;28;20514;-58
2021/08/15 14:08:05;;;;;;;4.70;3.10;;;;;;;;;;5115308;28;20440;-58
2021/08/15 14:10:32;;;;;;;4.03;3.50;;;;;;;;;;5115193;28;20482;-58
2021/08/15 14:13:00;;;;;;;4.90;3.40;;;;;;;;;;5115199;28;20998;-58
2021/08/15 14:15:28;;;;;;;4.23;3.27;;;;;;;;;;5115804;28;20469;-58
2021/08/15 14:17:56;;;;;;;6.30;3.80;;;;;;;;;;5115265;28;20505;-57
2021/08/15 14:20:23;;;;;;;4.10;3.07;;;;;;;;;;5115228;28;20450;-58
2021/08/15 14:22:50;;;;;;;6.73;3.33;;;;;;;;;;5114811;28;20501;-58
2021/08/15 14:25:17;;;;;;;3.73;3.17;;;;;;;;;;5114769;28;20499;-58
2021/08/15 14:27:45;;;;;;;5.60;2.30;;;;;;;;;;5114861;28;20451;-58
2021/08/15 14:30:13;;;;;;;4.20;2.80;;;;;;;;;;5114576;28;20606;-58
2021/08/15 14:32:42;;;;;;;4.03;2.90;;;;;;;;;;5114741;28;21000;-58
2021/08/15 14:35:12;;;;;;;4.93;3.03;;;;;;;;;;5114551;28;20472;-56
2021/08/15 14:37:39;;;;;;;4.67;3.20;;;;;;;;;;5116166;28;20439;-57
2021/08/15 14:40:07;;;;;;;4.27;3.03;;;;;;;;;;5114978;28;20440;-59
2021/08/15 14:42:35;;;;;;;3.70;2.97;;;;;;;;;;5114536;28;20936;-59
2021/08/15 14:45:02;;;;;;;4.00;2.40;;;;;;;;;;5114789;28;20520;-59
2021/08/15 14:47:29;;;;;;;3.73;2.63;;;;;;;;;;5114829;28;20785;-57